createdAt,value
2016-03-23T00:00:21.215Z,0
2016-03-23T00:01:21.219Z,0
2016-03-23T00:02:21.174Z,0
2016-03-23T00:03:21.162Z,0
2016-03-23T00:04:21.117Z,0
2016-03-23T00:05:21.104Z,0
2016-03-23T00:06:21.059Z,0
2016-03-23T00:07:21.048Z,0
2016-03-23T00:08:21.019Z,0
2016-03-23T00:09:20.989Z,0
2016-03-23T00:10:20.961Z,0
2016-03-23T00:11:20.933Z,0
2016-03-23T00:12:20.920Z,0
2016-03-23T00:13:20.891Z,0
2016-03-23T00:14:20.863Z,0
2016-03-23T00:15:20.834Z,0
2016-03-23T00:16:20.821Z,0
2016-03-23T00:17:20.794Z,0
2016-03-23T00:18:20.749Z,0
2016-03-23T00:19:20.736Z,0
2016-03-23T00:20:20.707Z,0
2016-03-23T00:21:20.725Z,0
2016-03-23T00:22:20.650Z,0
2016-03-23T00:23:20.637Z,0
2016-03-23T00:24:20.609Z,0
2016-03-23T00:25:20.596Z,0
2016-03-23T00:26:20.552Z,0
2016-03-23T00:27:20.538Z,0
2016-03-23T00:28:20.494Z,0
2016-03-23T00:29:20.466Z,0
2016-03-23T00:30:20.440Z,0
2016-03-23T00:31:20.428Z,0
2016-03-23T00:32:20.399Z,0
2016-03-23T00:33:20.371Z,0
2016-03-23T00:34:20.341Z,0
2016-03-23T00:35:20.313Z,0
2016-03-23T00:36:20.284Z,0
2016-03-23T00:37:20.256Z,0
2016-03-23T00:38:20.243Z,0
2016-03-23T00:39:20.215Z,0
2016-03-23T00:40:20.201Z,0
2016-03-23T00:41:20.189Z,0
2016-03-23T00:42:20.145Z,0
2016-03-23T00:43:20.100Z,0
2016-03-23T00:44:20.087Z,0
2016-03-23T00:45:20.042Z,0
2016-03-23T00:46:20.030Z,0
2016-03-23T00:47:20.001Z,0
2016-03-23T00:48:19.988Z,0
2016-03-23T00:49:19.961Z,0
2016-03-23T00:50:19.916Z,0
2016-03-23T00:51:19.903Z,0
2016-03-23T00:52:19.875Z,0
2016-03-23T00:53:19.846Z,0
2016-03-23T00:54:19.661Z,0
2016-03-23T00:55:19.788Z,0
2016-03-23T00:56:19.776Z,0
2016-03-23T00:57:19.747Z,0
2016-03-23T00:58:19.718Z,0
2016-03-23T00:59:19.690Z,0
2016-03-23T01:00:19.693Z,0
2016-03-23T01:01:19.633Z,0
2016-03-23T01:02:19.621Z,0
2016-03-23T01:03:19.592Z,0
2016-03-23T01:04:19.563Z,0
2016-03-23T01:05:19.534Z,0
2016-03-23T01:06:19.506Z,0
2016-03-23T01:07:19.477Z,0
2016-03-23T01:08:19.479Z,0
2016-03-23T01:09:19.435Z,0
2016-03-23T01:10:19.406Z,0
2016-03-23T01:11:19.379Z,0
2016-03-23T01:12:19.350Z,0
2016-03-23T01:13:19.321Z,0
2016-03-23T01:14:19.293Z,0
2016-03-23T01:15:19.280Z,0
2016-03-23T01:16:19.251Z,0
2016-03-23T01:17:19.223Z,0
2016-03-23T01:18:19.195Z,0
2016-03-23T01:19:19.166Z,0
2016-03-23T01:20:19.152Z,0
2016-03-23T01:21:19.109Z,0
2016-03-23T01:22:19.095Z,0
2016-03-23T01:23:19.083Z,0
2016-03-23T01:24:19.055Z,0
2016-03-23T01:25:19.025Z,0
2016-03-23T01:26:18.981Z,0
2016-03-23T01:27:18.953Z,0
2016-03-23T01:28:18.925Z,0
2016-03-23T01:29:18.911Z,0
2016-03-23T01:30:18.882Z,0
2016-03-23T01:31:18.855Z,0
2016-03-23T01:32:18.826Z,0
2016-03-23T01:33:18.797Z,0
2016-03-23T01:34:18.785Z,0
2016-03-23T01:35:18.741Z,0
2016-03-23T01:36:18.727Z,0
2016-03-23T01:37:18.682Z,0
2016-03-23T01:38:18.670Z,0
2016-03-23T01:39:18.641Z,0
2016-03-23T01:40:18.613Z,0
2016-03-23T01:41:18.584Z,0
2016-03-23T01:42:18.571Z,0
2016-03-23T01:43:18.543Z,0
2016-03-23T01:44:18.514Z,0
2016-03-23T01:45:18.486Z,0
2016-03-23T01:46:18.457Z,0
2016-03-23T01:47:18.428Z,0
2016-03-23T01:48:18.400Z,0
2016-03-23T01:49:18.387Z,0
2016-03-23T01:50:18.358Z,0
2016-03-23T01:51:18.330Z,0
2016-03-23T01:52:18.301Z,0
2016-03-23T01:53:18.273Z,0
2016-03-23T01:54:18.260Z,0
2016-03-23T01:55:18.231Z,0
2016-03-23T01:56:18.203Z,0
2016-03-23T01:57:18.174Z,0
2016-03-23T01:58:18.146Z,0
2016-03-23T01:59:18.116Z,0
2016-03-23T02:00:18.089Z,0
2016-03-23T02:01:18.075Z,0
2016-03-23T02:02:18.031Z,0
2016-03-23T02:03:18.019Z,0
2016-03-23T02:04:17.990Z,0
2016-03-23T02:05:17.961Z,0
2016-03-23T02:06:17.933Z,0
2016-03-23T02:07:17.905Z,0
2016-03-23T02:08:17.933Z,0
2016-03-23T02:09:18.018Z,0
2016-03-23T02:10:17.673Z,0
2016-03-23T02:11:18.692Z,0
2016-03-23T02:12:17.812Z,0
2016-03-23T02:13:17.754Z,0
2016-03-23T02:14:17.756Z,0
2016-03-23T02:15:17.712Z,0
2016-03-23T02:16:17.683Z,0
2016-03-23T02:17:17.670Z,0
2016-03-23T02:18:17.642Z,0
2016-03-23T02:19:17.597Z,0
2016-03-23T02:20:17.569Z,0
2016-03-23T02:21:17.546Z,0
2016-03-23T02:22:17.503Z,0
2016-03-23T02:23:17.473Z,0
2016-03-23T02:24:17.461Z,0
2016-03-23T02:25:17.431Z,0
2016-03-23T02:26:17.404Z,0
2016-03-23T02:27:17.391Z,0
2016-03-23T02:28:17.346Z,0
2016-03-23T02:29:17.317Z,0
2016-03-23T02:30:17.305Z,0
2016-03-23T02:31:17.307Z,0
2016-03-23T02:32:17.248Z,0
2016-03-23T02:33:17.219Z,0
2016-03-23T02:34:17.206Z,0
2016-03-23T02:35:17.177Z,0
2016-03-23T02:36:17.149Z,0
2016-03-23T02:37:17.121Z,0
2016-03-23T02:38:17.091Z,0
2016-03-23T02:39:17.063Z,0
2016-03-23T02:40:17.034Z,0
2016-03-23T02:41:17.022Z,0
2016-03-23T02:42:16.993Z,0
2016-03-23T02:43:16.965Z,0
2016-03-23T02:44:16.937Z,0
2016-03-23T02:45:16.907Z,0
2016-03-23T02:46:16.895Z,0
2016-03-23T02:47:16.865Z,0
2016-03-23T02:48:16.838Z,0
2016-03-23T02:49:16.809Z,0
2016-03-23T02:50:16.781Z,0
2016-03-23T02:51:16.751Z,0
2016-03-23T02:52:16.723Z,0
2016-03-23T02:53:16.711Z,0
2016-03-23T02:54:16.681Z,0
2016-03-23T02:55:16.654Z,0
2016-03-23T02:56:16.625Z,0
2016-03-23T02:57:16.597Z,0
2016-03-23T02:58:16.568Z,0
2016-03-23T02:59:16.539Z,0
2016-03-23T03:00:16.745Z,0
2016-03-23T03:01:16.497Z,0
2016-03-23T03:02:16.469Z,0
2016-03-23T03:03:16.441Z,0
2016-03-23T03:04:16.411Z,0
2016-03-23T03:05:16.399Z,0
2016-03-23T03:06:16.371Z,0
2016-03-23T03:07:16.327Z,0
2016-03-23T03:08:16.313Z,0
2016-03-23T03:09:16.285Z,0
2016-03-23T03:10:16.257Z,0
2016-03-23T03:11:16.228Z,0
2016-03-23T03:12:16.215Z,0
2016-03-23T03:13:16.185Z,0
2016-03-23T03:14:16.267Z,0
2016-03-23T03:15:16.145Z,0
2016-03-23T03:16:16.100Z,0
2016-03-23T03:17:16.072Z,0
2016-03-23T03:18:15.887Z,0
2016-03-23T03:19:16.014Z,0
2016-03-23T03:20:15.986Z,0
2016-03-23T03:21:15.973Z,0
2016-03-23T03:22:15.945Z,0
2016-03-23T03:23:15.916Z,0
2016-03-23T03:24:15.887Z,0
2016-03-23T03:25:15.859Z,0
2016-03-23T03:26:15.830Z,0
2016-03-23T03:27:15.817Z,0
2016-03-23T03:28:15.789Z,0
2016-03-23T03:29:15.776Z,0
2016-03-23T03:30:15.747Z,0
2016-03-23T03:31:15.704Z,0
2016-03-23T03:32:15.691Z,0
2016-03-23T03:33:15.648Z,0
2016-03-23T03:34:15.634Z,0
2016-03-23T03:35:15.605Z,0
2016-03-23T03:36:15.577Z,0
2016-03-23T03:37:15.548Z,0
2016-03-23T03:38:15.520Z,0
2016-03-23T03:39:15.506Z,0
2016-03-23T03:40:15.478Z,0
2016-03-23T03:41:15.450Z,0
2016-03-23T03:42:15.421Z,0
2016-03-23T03:43:15.393Z,0
2016-03-23T03:44:15.317Z,0
2016-03-23T03:45:15.352Z,0
2016-03-23T03:46:15.322Z,0
2016-03-23T03:47:15.294Z,0
2016-03-23T03:48:15.266Z,0
2016-03-23T03:49:15.237Z,0
2016-03-23T03:50:15.224Z,0
2016-03-23T03:51:15.196Z,0
2016-03-23T03:52:15.166Z,0
2016-03-23T03:53:15.138Z,0
2016-03-23T03:54:15.094Z,0
2016-03-23T03:55:15.082Z,0
2016-03-23T03:56:15.052Z,0
2016-03-23T03:57:15.024Z,0
2016-03-23T03:58:14.996Z,0
2016-03-23T03:59:14.873Z,0
2016-03-23T04:00:14.954Z,0
2016-03-23T04:01:14.941Z,0
2016-03-23T04:02:14.912Z,0
2016-03-23T04:03:14.884Z,0
2016-03-23T04:04:14.856Z,0
2016-03-23T04:05:14.827Z,0
2016-03-23T04:06:14.798Z,0
2016-03-23T04:07:14.770Z,0
2016-03-23T04:08:14.741Z,0
2016-03-23T04:09:14.712Z,0
2016-03-23T04:10:14.684Z,0
2016-03-23T04:11:14.655Z,0
2016-03-23T04:12:14.628Z,0
2016-03-23T04:13:14.598Z,0
2016-03-23T04:14:14.758Z,0
2016-03-23T04:15:14.557Z,0
2016-03-23T04:16:14.528Z,0
2016-03-23T04:17:14.500Z,0
2016-03-23T04:18:14.486Z,0
2016-03-23T04:19:14.458Z,0
2016-03-23T04:20:14.429Z,0
2016-03-23T04:21:14.416Z,0
2016-03-23T04:22:14.372Z,0
2016-03-23T04:23:14.343Z,0
2016-03-23T04:24:14.331Z,0
2016-03-23T04:25:14.302Z,0
2016-03-23T04:26:14.273Z,0
2016-03-23T04:27:14.245Z,0
2016-03-23T04:28:14.217Z,0
2016-03-23T04:29:14.312Z,0
2016-03-23T04:30:14.159Z,0
2016-03-23T04:31:14.146Z,0
2016-03-23T04:32:14.118Z,0
2016-03-23T04:33:14.089Z,0
2016-03-23T04:34:14.061Z,0
2016-03-23T04:35:14.032Z,0
2016-03-23T04:36:14.003Z,0
2016-03-23T04:37:13.975Z,0
2016-03-23T04:38:13.947Z,0
2016-03-23T04:39:13.918Z,0
2016-03-23T04:40:13.733Z,0
2016-03-23T04:41:13.877Z,0
2016-03-23T04:42:13.848Z,0
2016-03-23T04:43:13.836Z,0
2016-03-23T04:44:13.853Z,0
2016-03-23T04:45:13.763Z,0
2016-03-23T04:46:13.734Z,0
2016-03-23T04:47:13.705Z,0
2016-03-23T04:48:13.708Z,0
2016-03-23T04:49:13.664Z,0
2016-03-23T04:50:13.652Z,0
2016-03-23T04:51:13.622Z,0
2016-03-23T04:52:13.593Z,0
2016-03-23T04:53:13.566Z,0
2016-03-23T04:54:13.552Z,0
2016-03-23T04:55:13.508Z,4
2016-03-23T04:56:13.496Z,4
2016-03-23T04:57:13.451Z,4
2016-03-23T04:58:13.423Z,0
2016-03-23T04:59:13.440Z,4
2016-03-23T05:00:13.382Z,4
2016-03-23T05:01:13.337Z,4
2016-03-23T05:02:13.340Z,8
2016-03-23T05:03:13.311Z,8
2016-03-23T05:04:13.267Z,8
2016-03-23T05:05:13.081Z,8
2016-03-23T05:06:13.210Z,8
2016-03-23T05:07:13.181Z,12
2016-03-23T05:08:13.153Z,20
2016-03-23T05:09:13.155Z,24
2016-03-23T05:10:13.111Z,24
2016-03-23T05:11:13.098Z,28
2016-03-23T05:12:13.053Z,32
2016-03-23T05:13:13.056Z,36
2016-03-23T05:14:13.105Z,40
2016-03-23T05:15:12.984Z,44
2016-03-23T05:16:12.952Z,56
2016-03-23T05:17:12.914Z,60
2016-03-23T05:18:12.874Z,68
2016-03-23T05:19:12.835Z,76
2016-03-23T05:20:12.813Z,84
2016-03-23T05:21:12.775Z,84
2016-03-23T05:22:12.743Z,96
2016-03-23T05:23:12.711Z,116
2016-03-23T05:24:12.679Z,136
2016-03-23T05:25:12.647Z,140
2016-03-23T05:26:12.616Z,132
2016-03-23T05:27:12.586Z,156
2016-03-23T05:28:12.556Z,196
2016-03-23T05:29:12.588Z,224
2016-03-23T05:30:12.511Z,240
2016-03-23T05:31:12.480Z,268
2016-03-23T05:32:12.452Z,300
2016-03-23T05:33:12.440Z,364
2016-03-23T05:34:12.410Z,416
2016-03-23T05:35:12.381Z,476
2016-03-23T05:36:12.353Z,544
2016-03-23T05:37:12.324Z,596
2016-03-23T05:38:12.295Z,656
2016-03-23T05:39:12.266Z,720
2016-03-23T05:40:12.253Z,784
2016-03-23T05:41:12.225Z,856
2016-03-23T05:42:12.196Z,936
2016-03-23T05:43:12.168Z,1052
2016-03-23T05:44:12.138Z,1140
2016-03-23T05:45:12.095Z,1204
2016-03-23T05:46:12.082Z,1272
2016-03-23T05:47:12.054Z,1332
2016-03-23T05:48:12.025Z,1412
2016-03-23T05:49:12.012Z,1504
2016-03-23T05:50:11.984Z,1616
2016-03-23T05:51:11.970Z,1728
2016-03-23T05:52:11.926Z,1828
2016-03-23T05:53:11.898Z,1920
2016-03-23T05:54:11.870Z,1988
2016-03-23T05:55:11.840Z,2060
2016-03-23T05:56:11.813Z,2124
2016-03-23T05:57:11.784Z,2220
2016-03-23T05:58:11.756Z,2320
2016-03-23T05:59:11.727Z,2416
2016-03-23T06:00:11.714Z,2516
2016-03-23T06:01:11.685Z,2588
2016-03-23T06:02:11.656Z,2668
2016-03-23T06:03:11.628Z,2752
2016-03-23T06:04:11.615Z,2928
2016-03-23T06:05:11.586Z,3088
2016-03-23T06:06:11.558Z,3144
2016-03-23T06:07:11.543Z,3136
2016-03-23T06:08:11.520Z,3248
2016-03-23T06:09:11.476Z,3384
2016-03-23T06:10:11.448Z,3568
2016-03-23T06:11:11.419Z,3704
2016-03-23T06:12:11.406Z,3768
2016-03-23T06:13:11.378Z,3840
2016-03-23T06:14:11.334Z,3940
2016-03-23T06:15:11.320Z,4032
2016-03-23T06:16:11.292Z,4120
2016-03-23T06:17:11.263Z,4160
2016-03-23T06:18:11.234Z,4208
2016-03-23T06:19:11.222Z,4240
2016-03-23T06:20:11.193Z,4244
2016-03-23T06:21:11.165Z,4276
2016-03-23T06:22:11.152Z,4408
2016-03-23T06:23:10.967Z,4648
2016-03-23T06:24:11.094Z,4884
2016-03-23T06:25:11.081Z,5164
2016-03-23T06:26:11.038Z,5324
2016-03-23T06:27:11.009Z,5340
2016-03-23T06:28:10.980Z,5164
2016-03-23T06:29:10.967Z,5048
2016-03-23T06:30:10.923Z,4992
2016-03-23T06:31:10.894Z,4936
2016-03-23T06:32:10.882Z,4772
2016-03-23T06:33:10.853Z,4640
2016-03-23T06:34:10.825Z,4700
2016-03-23T06:35:10.812Z,4828
2016-03-23T06:36:10.783Z,4816
2016-03-23T06:37:10.754Z,4692
2016-03-23T06:38:10.741Z,4412
2016-03-23T06:39:10.698Z,4292
2016-03-23T06:40:10.668Z,4120
2016-03-23T06:41:09.921Z,4176
2016-03-23T06:42:10.626Z,4480
2016-03-23T06:43:10.598Z,4596
2016-03-23T06:44:10.586Z,4328
2016-03-23T06:45:10.542Z,3944
2016-03-23T06:46:10.529Z,3836
2016-03-23T06:47:10.484Z,4068
2016-03-23T06:48:10.456Z,4092
2016-03-23T06:49:10.442Z,3716
2016-03-23T06:50:10.414Z,2928
2016-03-23T06:51:10.401Z,2928
2016-03-23T06:52:10.372Z,3376
2016-03-23T06:53:10.344Z,3640
2016-03-23T06:54:10.316Z,3624
2016-03-23T06:55:10.287Z,2952
2016-03-23T06:56:10.259Z,3116
2016-03-23T06:57:10.231Z,3832
2016-03-23T06:58:10.202Z,4276
2016-03-23T06:59:10.189Z,3344
2016-03-23T07:00:10.161Z,2536
2016-03-23T07:01:10.132Z,2788
2016-03-23T07:02:10.103Z,2944
2016-03-23T07:03:10.091Z,2744
2016-03-23T07:04:10.061Z,3016
2016-03-23T07:05:10.018Z,2948
2016-03-23T07:06:10.145Z,3340
2016-03-23T07:07:10.273Z,3780
2016-03-23T07:08:10.009Z,4832
2016-03-23T07:09:09.919Z,5588
2016-03-23T07:10:09.906Z,5728
2016-03-23T07:11:09.893Z,5856
2016-03-23T07:12:09.865Z,6652
2016-03-23T07:13:09.835Z,6480
2016-03-23T07:14:09.792Z,6476
2016-03-23T07:15:09.762Z,7228
2016-03-23T07:16:09.765Z,7572
2016-03-23T07:17:09.721Z,6480
2016-03-23T07:18:09.692Z,5812
2016-03-23T07:19:09.664Z,5292
2016-03-23T07:20:09.651Z,4728
2016-03-23T07:21:09.622Z,5408
2016-03-23T07:22:09.594Z,6336
2016-03-23T07:23:09.566Z,6204
2016-03-23T07:24:09.553Z,5104
2016-03-23T07:25:09.525Z,4152
2016-03-23T07:26:09.495Z,4828
2016-03-23T07:27:09.483Z,7276
2016-03-23T07:28:09.454Z,8264
2016-03-23T07:29:09.441Z,8760
2016-03-23T07:30:09.397Z,7732
2016-03-23T07:31:09.369Z,6256
2016-03-23T07:32:09.340Z,6904
2016-03-23T07:33:09.311Z,7580
2016-03-23T07:34:09.299Z,7276
2016-03-23T07:35:09.269Z,6724
2016-03-23T07:36:09.241Z,7272
2016-03-23T07:37:09.229Z,7468
2016-03-23T07:38:09.215Z,7964
2016-03-23T07:39:09.155Z,8520
2016-03-23T07:40:09.142Z,9200
2016-03-23T07:41:09.145Z,8728
2016-03-23T07:42:09.101Z,8032
2016-03-23T07:43:09.072Z,7244
2016-03-23T07:44:09.044Z,7080
2016-03-23T07:45:09.015Z,6776
2016-03-23T07:46:09.003Z,5872
2016-03-23T07:47:08.959Z,5660
2016-03-23T07:48:08.945Z,6176
2016-03-23T07:49:08.917Z,6624
2016-03-23T07:50:08.889Z,8796
2016-03-23T07:51:08.875Z,11076
2016-03-23T07:52:08.831Z,11036
2016-03-23T07:53:08.817Z,9372
2016-03-23T07:54:09.086Z,8792
2016-03-23T07:55:08.761Z,7972
2016-03-23T07:56:08.747Z,8212
2016-03-23T07:57:08.720Z,9492
2016-03-23T07:58:08.706Z,8580
2016-03-23T07:59:08.678Z,7696
2016-03-23T08:00:08.649Z,6528
2016-03-23T08:01:08.652Z,6636
2016-03-23T08:02:08.608Z,7332
2016-03-23T08:03:08.580Z,7044
2016-03-23T08:04:08.395Z,6724
2016-03-23T08:05:08.522Z,8016
2016-03-23T08:06:08.494Z,10200
2016-03-23T08:07:08.480Z,11440
2016-03-23T08:08:08.437Z,11928
2016-03-23T08:09:08.408Z,13608
2016-03-23T08:10:08.395Z,14268
2016-03-23T08:11:08.366Z,14916
2016-03-23T08:12:08.337Z,14432
2016-03-23T08:13:08.325Z,13080
2016-03-23T08:14:08.296Z,12440
2016-03-23T08:15:08.346Z,12164
2016-03-23T08:16:08.254Z,12492
2016-03-23T08:17:08.226Z,13072
2016-03-23T08:18:08.214Z,13740
2016-03-23T08:19:08.184Z,14196
2016-03-23T08:20:08.173Z,14764
2016-03-23T08:21:08.128Z,15144
2016-03-23T08:22:08.115Z,15024
2016-03-23T08:23:07.930Z,14420
2016-03-23T08:24:08.058Z,15456
2016-03-23T08:25:08.029Z,16832
2016-03-23T08:26:08.000Z,18048
2016-03-23T08:27:07.972Z,19232
2016-03-23T08:28:07.959Z,19648
2016-03-23T08:29:07.930Z,20096
2016-03-23T08:30:07.950Z,19104
2016-03-23T08:31:07.905Z,19680
2016-03-23T08:32:07.877Z,20192
2016-03-23T08:33:07.847Z,19072
2016-03-23T08:34:07.835Z,17792
2016-03-23T08:35:07.791Z,18080
2016-03-23T08:36:07.793Z,18880
2016-03-23T08:37:07.765Z,18400
2016-03-23T08:38:07.845Z,18848
2016-03-23T08:39:07.724Z,18272
2016-03-23T08:40:07.679Z,16552
2016-03-23T08:41:07.666Z,16744
2016-03-23T08:42:07.638Z,17208
2016-03-23T08:43:07.609Z,18336
2016-03-23T08:44:07.595Z,19520
2016-03-23T08:45:07.552Z,19904
2016-03-23T08:46:07.539Z,21152
2016-03-23T08:47:07.526Z,21408
2016-03-23T08:48:07.497Z,21824
2016-03-23T08:49:07.484Z,21632
2016-03-23T08:50:08.331Z,22048
2016-03-23T08:51:07.442Z,22336
2016-03-23T08:52:07.415Z,22176
2016-03-23T08:53:07.401Z,21440
2016-03-23T08:54:07.372Z,21376
2016-03-23T08:55:07.359Z,21664
2016-03-23T08:56:07.316Z,22080
2016-03-23T08:57:07.303Z,22944
2016-03-23T08:58:07.336Z,23552
2016-03-23T08:59:07.245Z,22560
2016-03-23T09:00:07.483Z,21568
2016-03-23T09:01:07.204Z,21696
2016-03-23T09:02:07.208Z,22176
2016-03-23T09:03:07.178Z,22560
2016-03-23T09:04:07.150Z,23072
2016-03-23T09:05:07.418Z,23584
2016-03-23T09:06:07.093Z,24384
2016-03-23T09:07:07.080Z,24640
2016-03-23T09:08:07.066Z,25056
2016-03-23T09:09:07.069Z,24768
2016-03-23T09:10:07.009Z,24832
2016-03-23T09:11:07.075Z,25024
2016-03-23T09:12:06.952Z,24352
2016-03-23T09:13:07.252Z,23552
2016-03-23T09:14:06.926Z,23424
2016-03-23T09:15:07.023Z,23296
2016-03-23T09:16:06.932Z,22496
2016-03-23T09:17:06.857Z,23072
2016-03-23T09:18:06.843Z,23072
2016-03-23T09:19:06.815Z,22688
2016-03-23T09:20:06.801Z,22496
2016-03-23T09:21:06.789Z,22496
2016-03-23T09:22:06.761Z,22560
2016-03-23T09:23:06.747Z,23520
2016-03-23T09:24:06.704Z,24672
2016-03-23T09:25:06.690Z,25312
2016-03-23T09:26:06.661Z,25280
2016-03-23T09:27:06.649Z,23232
2016-03-23T09:28:06.620Z,22048
2016-03-23T09:29:06.608Z,21792
2016-03-23T09:30:06.750Z,21280
2016-03-23T09:31:06.550Z,19872
2016-03-23T09:32:06.553Z,19136
2016-03-23T09:33:06.508Z,19392
2016-03-23T09:34:06.340Z,19968
2016-03-23T09:35:06.530Z,20160
2016-03-23T09:36:06.501Z,22176
2016-03-23T09:37:06.488Z,24256
2016-03-23T09:38:06.429Z,24992
2016-03-23T09:39:06.400Z,25312
2016-03-23T09:40:06.387Z,22912
2016-03-23T09:41:06.437Z,19072
2016-03-23T09:42:06.330Z,15636
2016-03-23T09:43:06.301Z,13208
2016-03-23T09:44:06.289Z,11992
2016-03-23T09:45:06.104Z,11360
2016-03-23T09:46:06.247Z,11620
2016-03-23T09:47:06.219Z,12720
2016-03-23T09:48:06.190Z,13444
2016-03-23T09:49:06.177Z,13404
2016-03-23T09:50:06.164Z,12836
2016-03-23T09:51:06.150Z,12408
2016-03-23T09:52:06.106Z,12764
2016-03-23T09:53:06.219Z,13648
2016-03-23T09:54:06.237Z,14164
2016-03-23T09:55:06.396Z,14664
2016-03-23T09:56:06.024Z,15188
2016-03-23T09:57:05.995Z,16216
2016-03-23T09:58:05.982Z,18080
2016-03-23T09:59:05.954Z,19424
2016-03-23T10:00:05.941Z,20320
2016-03-23T10:01:05.911Z,20160
2016-03-23T10:02:05.899Z,19200
2016-03-23T10:03:05.871Z,16828
2016-03-23T10:04:05.842Z,15080
2016-03-23T10:05:05.830Z,13968
2016-03-23T10:06:05.816Z,13572
2016-03-23T10:07:05.788Z,13756
2016-03-23T10:08:05.774Z,14496
2016-03-23T10:09:05.731Z,15524
2016-03-23T10:10:05.718Z,16108
2016-03-23T10:11:05.689Z,16004
2016-03-23T10:12:05.676Z,15712
2016-03-23T10:13:05.648Z,15224
2016-03-23T10:14:05.619Z,14716
2016-03-23T10:15:05.653Z,14412
2016-03-23T10:16:05.578Z,13780
2016-03-23T10:17:05.565Z,12880
2016-03-23T10:18:05.536Z,11680
2016-03-23T10:19:05.508Z,10844
2016-03-23T10:20:05.495Z,10960
2016-03-23T10:21:05.482Z,10800
2016-03-23T10:22:05.609Z,11032
2016-03-23T10:23:05.440Z,11580
2016-03-23T10:24:05.395Z,11956
2016-03-23T10:25:05.384Z,12176
2016-03-23T10:26:05.354Z,12456
2016-03-23T10:27:05.341Z,12796
2016-03-23T10:28:05.297Z,14348
2016-03-23T10:29:05.284Z,16996
2016-03-23T10:30:05.272Z,18944
2016-03-23T10:31:05.242Z,19552
2016-03-23T10:32:05.214Z,19488
2016-03-23T10:33:05.202Z,19296
2016-03-23T10:34:05.172Z,19264
2016-03-23T10:35:05.161Z,19264
2016-03-23T10:36:04.975Z,18880
2016-03-23T10:37:05.102Z,18368
2016-03-23T10:38:05.121Z,17348
2016-03-23T10:39:05.061Z,15896
2016-03-23T10:40:05.049Z,13984
2016-03-23T10:41:05.019Z,12288
2016-03-23T10:42:04.991Z,11112
2016-03-23T10:43:04.963Z,10484
2016-03-23T10:44:04.934Z,10220
2016-03-23T10:45:04.953Z,10160
2016-03-23T10:46:04.908Z,10192
2016-03-23T10:47:04.880Z,10312
2016-03-23T10:48:04.851Z,10500
2016-03-23T10:49:04.838Z,10992
2016-03-23T10:50:04.825Z,11932
2016-03-23T10:51:04.796Z,12644
2016-03-23T10:52:04.784Z,12580
2016-03-23T10:53:04.770Z,11572
2016-03-23T10:54:05.211Z,10784
2016-03-23T10:55:04.698Z,11176
2016-03-23T10:56:04.685Z,12372
2016-03-23T10:57:04.656Z,13488
2016-03-23T10:58:04.628Z,14144
2016-03-23T10:59:04.600Z,13656
2016-03-23T11:00:04.570Z,13136
2016-03-23T11:01:04.563Z,12964
2016-03-23T11:02:04.534Z,12772
2016-03-23T11:03:04.522Z,12412
2016-03-23T11:04:04.493Z,11968
2016-03-23T11:05:04.464Z,11840
2016-03-23T11:06:04.451Z,12496
2016-03-23T11:07:04.422Z,13172
2016-03-23T11:08:04.410Z,13700
2016-03-23T11:09:04.382Z,14672
2016-03-23T11:10:04.399Z,14676
2016-03-23T11:11:04.355Z,14700
2016-03-23T11:12:04.296Z,15660
2016-03-23T11:13:04.829Z,18208
2016-03-23T11:14:04.270Z,19552
2016-03-23T11:15:04.240Z,19680
2016-03-23T11:16:04.213Z,19584
2016-03-23T11:17:04.184Z,19136
2016-03-23T11:18:04.295Z,19040
2016-03-23T11:19:04.159Z,19680
2016-03-23T11:20:04.145Z,20416
2016-03-23T11:21:04.132Z,20032
2016-03-23T11:22:04.182Z,18560
2016-03-23T11:23:04.059Z,16884
2016-03-23T11:24:04.047Z,16172
2016-03-23T11:25:04.017Z,15988
2016-03-23T11:26:03.990Z,15336
2016-03-23T11:27:03.961Z,14144
2016-03-23T11:28:04.308Z,12760
2016-03-23T11:29:03.920Z,12236
2016-03-23T11:30:03.906Z,11824
2016-03-23T11:31:03.878Z,10264
2016-03-23T11:32:03.850Z,9172
2016-03-23T11:33:03.837Z,9044
2016-03-23T11:34:03.808Z,9264
2016-03-23T11:35:03.826Z,9356
2016-03-23T11:36:03.767Z,9340
2016-03-23T11:37:03.785Z,9312
2016-03-23T11:38:03.725Z,9400
2016-03-23T11:39:03.712Z,10304
2016-03-23T11:40:03.683Z,10840
2016-03-23T11:41:03.654Z,10556
2016-03-23T11:42:03.642Z,10860
2016-03-23T11:43:03.629Z,11944
2016-03-23T11:44:03.600Z,13148
2016-03-23T11:45:03.571Z,14316
2016-03-23T11:46:03.543Z,15548
2016-03-23T11:47:03.515Z,17472
2016-03-23T11:48:03.501Z,18720
2016-03-23T11:49:03.473Z,19840
2016-03-23T11:50:03.460Z,20800
2016-03-23T11:51:03.447Z,21504
2016-03-23T11:52:03.419Z,22112
2016-03-23T11:53:03.406Z,22528
2016-03-23T11:54:03.362Z,23040
2016-03-23T11:55:03.380Z,23168
2016-03-23T11:56:03.320Z,22848
2016-03-23T11:57:03.292Z,21888
2016-03-23T11:58:03.278Z,20000
2016-03-23T11:59:03.250Z,18272
2016-03-23T12:00:03.253Z,16996
2016-03-23T12:01:03.208Z,15948
2016-03-23T12:02:03.243Z,14904
2016-03-23T12:03:03.167Z,15452
2016-03-23T12:04:03.154Z,18720
2016-03-23T12:05:03.266Z,21280
2016-03-23T12:06:03.097Z,22176
2016-03-23T12:07:03.084Z,22560
2016-03-23T12:08:03.196Z,22656
2016-03-23T12:09:03.277Z,22528
2016-03-23T12:10:03.107Z,22560
2016-03-23T12:11:03.001Z,22816
2016-03-23T12:12:02.988Z,22880
2016-03-23T12:13:02.960Z,23104
2016-03-23T12:14:02.931Z,23008
2016-03-23T12:15:02.918Z,22688
2016-03-23T12:16:02.937Z,22240
2016-03-23T12:17:02.877Z,22496
2016-03-23T12:18:02.848Z,22880
2016-03-23T12:19:02.929Z,23296
2016-03-23T12:20:02.806Z,23872
2016-03-23T12:21:02.779Z,24544
2016-03-23T12:22:02.765Z,25344
2016-03-23T12:23:02.752Z,26048
2016-03-23T12:24:03.114Z,26880
2016-03-23T12:25:02.711Z,27552
2016-03-23T12:26:02.682Z,28192
2016-03-23T12:27:02.669Z,28416
2016-03-23T12:28:02.672Z,28032
2016-03-23T12:29:02.643Z,28032
2016-03-23T12:30:02.599Z,28192
2016-03-23T12:31:02.586Z,28416
2016-03-23T12:32:02.558Z,27520
2016-03-23T12:33:02.544Z,26560
2016-03-23T12:34:02.672Z,26432
2016-03-23T12:35:02.503Z,26848
2016-03-23T12:36:02.491Z,27424
2016-03-23T12:37:02.461Z,27648
2016-03-23T12:38:02.433Z,27040
2016-03-23T12:39:02.420Z,26208
2016-03-23T12:40:02.407Z,25440
2016-03-23T12:41:02.394Z,24928
2016-03-23T12:42:02.396Z,23936
2016-03-23T12:43:02.352Z,22752
2016-03-23T12:44:02.433Z,22208
2016-03-23T12:45:02.295Z,21472
2016-03-23T12:46:02.282Z,20512
2016-03-23T12:47:02.270Z,19360
2016-03-23T12:48:02.256Z,18144
2016-03-23T12:49:02.228Z,16068
2016-03-23T12:50:02.215Z,13712
2016-03-23T12:51:02.186Z,11760
2016-03-23T12:52:02.251Z,11272
2016-03-23T12:53:02.162Z,11448
2016-03-23T12:54:02.148Z,11968
2016-03-23T12:55:02.120Z,12284
2016-03-23T12:56:02.106Z,12288
2016-03-23T12:57:02.093Z,13044
2016-03-23T12:58:02.064Z,14024
2016-03-23T12:59:02.036Z,14740
2016-03-23T13:00:02.008Z,14868
2016-03-23T13:01:02.058Z,14792
2016-03-23T13:02:02.122Z,14660
2016-03-23T13:03:01.953Z,14916
2016-03-23T13:04:01.941Z,15360
2016-03-23T13:05:01.927Z,16040
2016-03-23T13:06:01.899Z,17408
2016-03-23T13:07:01.886Z,18368
2016-03-23T13:08:01.857Z,18912
2016-03-23T13:09:01.830Z,18272
2016-03-23T13:10:01.800Z,17760
2016-03-23T13:11:01.787Z,17728
2016-03-23T13:12:01.774Z,17632
2016-03-23T13:13:01.761Z,17440
2016-03-23T13:14:01.733Z,17664
2016-03-23T13:15:01.704Z,18432
2016-03-23T13:16:01.832Z,19360
2016-03-23T13:17:01.679Z,20128
2016-03-23T13:18:01.649Z,20800
2016-03-23T13:19:01.638Z,21632
2016-03-23T13:20:01.640Z,22272
2016-03-23T13:21:01.751Z,22976
2016-03-23T13:22:01.568Z,23008
2016-03-23T13:23:01.648Z,22592
2016-03-23T13:24:01.525Z,22816
2016-03-23T13:25:01.590Z,22688
2016-03-23T13:26:01.484Z,22176
2016-03-23T13:27:01.470Z,22464
2016-03-23T13:28:01.443Z,22976
2016-03-23T13:29:01.429Z,23392
2016-03-23T13:30:01.401Z,23456
2016-03-23T13:31:01.450Z,22912
2016-03-23T13:32:01.375Z,22592
2016-03-23T13:33:01.361Z,21856
2016-03-23T13:34:01.333Z,21536
2016-03-23T13:35:01.320Z,21216
2016-03-23T13:36:01.292Z,21408
2016-03-23T13:37:01.264Z,20928
2016-03-23T13:38:01.250Z,19104
2016-03-23T13:39:01.222Z,17376